Terminal Aerodrome Forecast
Issued by NWS Upton, NY

Home | Current Version | Previous Version | Text Only | Print | Product List | Glossary On
Versions: 1 2 3 4 5 6 7 8 9 10 11 12 13 14 15 16 17 18 19 20 21 22 23 24 25 26 27 28 29 30 31 32 33 34 35 36 37 38 39 40 41 42 43 44 45 46 47 48 49 50
000
FTUS41 KOKX 231227 AAA
TAFEWR
TAF AMD
KEWR 231227Z 2312/2418 35012KT P6SM BKN009 BKN045 OVC060
     FM231400 33010KT P6SM VCSH OVC015
     FM231700 35009KT P6SM -SHRA SCT015 BKN025
     FM232100 03007KT P6SM VCSH SCT025 BKN040
     FM240100 05006KT P6SM BKN050
     FM241000 01009KT P6SM SCT040 BKN100=

USA.gov is the U.S. government's official web portal to all federal, state and local government web resources and services.